createdAt,value
2023-05-13T00:02:25.758Z,10.60
2023-05-13T00:04:53.844Z,10.70
2023-05-13T00:07:22.054Z,10.70
2023-05-13T00:09:50.176Z,10.90
2023-05-13T00:12:26.793Z,11.00
2023-05-13T00:14:54.864Z,11.00
2023-05-13T00:17:24.992Z,11.10
2023-05-13T00:19:53.090Z,11.10
2023-05-13T00:22:21.225Z,11.20
2023-05-13T00:24:49.206Z,11.30
2023-05-13T00:27:17.224Z,11.40
2023-05-13T00:29:52.736Z,11.40
2023-05-13T00:32:20.872Z,11.40
2023-05-13T00:34:49.230Z,11.50
2023-05-13T00:37:25.963Z,11.40
2023-05-13T00:39:54.152Z,11.50
2023-05-13T00:42:23.235Z,11.50
2023-05-13T00:44:53.106Z,11.50
2023-05-13T00:47:21.218Z,11.60
2023-05-13T00:49:49.375Z,11.60
2023-05-13T00:52:17.619Z,11.60
2023-05-13T00:54:46.662Z,11.70
2023-05-13T00:57:14.773Z,11.70
2023-05-13T00:59:42.869Z,11.80
2023-05-13T01:02:17.373Z,11.80
2023-05-13T01:04:49.237Z,11.80
2023-05-13T01:07:28.477Z,11.80
2023-05-13T01:10:02.512Z,11.80
2023-05-13T01:12:34.599Z,11.80
2023-05-13T01:15:06.907Z,11.80
2023-05-13T01:17:56.923Z,11.80
2023-05-13T01:20:25.358Z,11.70
2023-05-13T01:22:54.753Z,11.70
2023-05-13T01:25:22.844Z,11.70
2023-05-13T01:27:51.108Z,11.70
2023-05-13T01:30:20.139Z,11.80
2023-05-13T01:32:48.770Z,11.80
2023-05-13T01:35:27.082Z,11.80
2023-05-13T01:37:58.302Z,11.80
2023-05-13T01:40:32.852Z,11.70
2023-05-13T01:43:01.427Z,11.70
2023-05-13T01:45:36.841Z,11.70
2023-05-13T01:48:05.183Z,11.80
2023-05-13T01:50:35.313Z,11.70
2023-05-13T01:53:04.900Z,11.80
2023-05-13T01:55:32.955Z,11.80
2023-05-13T01:58:01.985Z,11.80
2023-05-13T02:00:30.068Z,11.80
2023-05-13T02:03:04.185Z,11.80
2023-05-13T02:05:33.256Z,11.80
2023-05-13T02:08:01.286Z,11.80
2023-05-13T02:10:31.037Z,11.70
2023-05-13T02:12:59.025Z,11.70
2023-05-13T02:15:26.991Z,11.70
2023-05-13T02:17:55.017Z,11.80
2023-05-13T02:20:23.388Z,11.70
2023-05-13T02:22:51.555Z,11.80
2023-05-13T02:25:26.882Z,11.80
2023-05-13T02:27:56.234Z,11.80
2023-05-13T02:30:26.995Z,11.80
2023-05-13T02:33:03.913Z,11.80
2023-05-13T02:35:32.161Z,11.80
2023-05-13T02:38:00.159Z,11.80
2023-05-13T02:40:34.144Z,11.80
2023-05-13T02:43:03.463Z,11.80
2023-05-13T02:45:31.797Z,11.80
2023-05-13T02:48:00.882Z,11.80
2023-05-13T02:50:52.516Z,11.80
2023-05-13T02:53:20.524Z,11.80
2023-05-13T02:55:48.584Z,11.70
2023-05-13T02:58:18.514Z,11.80
2023-05-13T03:00:46.538Z,11.70
2023-05-13T03:03:14.617Z,11.80
2023-05-13T03:05:55.803Z,11.80
2023-05-13T03:08:23.830Z,11.70
2023-05-13T03:10:52.702Z,11.70
2023-05-13T03:13:22.073Z,11.70
2023-05-13T03:15:50.102Z,11.70
2023-05-13T03:18:18.179Z,11.70
2023-05-13T03:20:46.489Z,11.70
2023-05-13T03:23:14.433Z,11.70
2023-05-13T03:25:50.592Z,11.70
2023-05-13T03:28:18.616Z,11.70
2023-05-13T03:30:48.080Z,11.70
2023-05-13T03:33:16.176Z,11.60
2023-05-13T03:35:44.239Z,11.60
2023-05-13T03:38:12.227Z,11.70
2023-05-13T03:40:41.266Z,11.70
2023-05-13T03:43:09.252Z,11.70
2023-05-13T03:45:37.298Z,11.70
2023-05-13T03:48:10.468Z,11.60
2023-05-13T03:50:47.270Z,11.60
2023-05-13T03:53:15.271Z,11.60
2023-05-13T03:55:43.463Z,11.60
2023-05-13T03:58:19.100Z,11.60
2023-05-13T04:00:47.587Z,11.50
2023-05-13T04:03:17.369Z,11.60
2023-05-13T04:05:47.866Z,11.60
2023-05-13T04:08:16.151Z,11.60
2023-05-13T04:10:44.376Z,11.60
2023-05-13T04:13:12.768Z,11.60
2023-05-13T04:15:40.748Z,11.60
2023-05-13T04:18:08.999Z,11.50
2023-05-13T04:20:40.489Z,11.60
2023-05-13T04:23:08.686Z,11.60
2023-05-13T04:25:37.772Z,11.60
2023-05-13T04:28:07.107Z,11.60
2023-05-13T04:30:35.516Z,11.60
2023-05-13T04:33:03.560Z,11.60
2023-05-13T04:35:31.652Z,11.60
2023-05-13T04:38:01.061Z,11.60
2023-05-13T04:40:29.020Z,11.60
2023-05-13T04:43:05.125Z,11.70
2023-05-13T04:45:33.083Z,11.70
2023-05-13T04:48:01.115Z,11.80
2023-05-13T04:50:29.295Z,11.70
2023-05-13T04:53:01.194Z,11.80
2023-05-13T04:55:29.267Z,11.80
2023-05-13T04:57:58.322Z,11.90
2023-05-13T05:00:26.492Z,11.90
2023-05-13T05:02:55.895Z,11.80
2023-05-13T05:05:23.902Z,11.80
2023-05-13T05:07:52.904Z,11.90
2023-05-13T05:10:27.567Z,11.90
2023-05-13T05:12:55.605Z,11.90
2023-05-13T05:15:23.726Z,12.00
2023-05-13T05:17:51.895Z,12.00
2023-05-13T05:20:29.244Z,12.00
2023-05-13T05:22:58.365Z,12.10
2023-05-13T05:25:35.113Z,12.10
2023-05-13T05:28:05.186Z,12.20
2023-05-13T05:30:39.388Z,12.20
2023-05-13T05:33:08.744Z,12.20
2023-05-13T05:35:38.378Z,12.10
2023-05-13T05:38:14.362Z,12.10
2023-05-13T05:40:46.956Z,12.20
2023-05-13T05:43:14.983Z,12.20
2023-05-13T05:45:42.973Z,12.10
2023-05-13T05:48:16.977Z,12.10
2023-05-13T05:50:58.767Z,12.10
2023-05-13T05:53:28.851Z,12.10
2023-05-13T05:55:59.344Z,11.90
2023-05-13T05:58:33.628Z,12.10
2023-05-13T06:01:01.753Z,12.10
2023-05-13T06:03:38.003Z,12.10
2023-05-13T06:06:06.490Z,12.20
2023-05-13T06:08:35.570Z,12.30
2023-05-13T06:11:05.064Z,12.30
2023-05-13T06:13:46.354Z,12.20
2023-05-13T06:16:14.533Z,12.40
2023-05-13T06:18:43.164Z,12.50
2023-05-13T06:21:11.222Z,12.40
2023-05-13T06:23:39.400Z,12.50
2023-05-13T06:26:08.806Z,12.60
2023-05-13T06:28:36.780Z,12.50
2023-05-13T06:31:04.906Z,12.60
2023-05-13T06:33:33.539Z,12.70
2023-05-13T06:36:01.592Z,12.70
2023-05-13T06:38:29.564Z,12.90
2023-05-13T06:41:07.839Z,13.10
2023-05-13T06:43:45.552Z,13.10
2023-05-13T06:46:20.549Z,13.20
2023-05-13T06:48:52.258Z,13.30
2023-05-13T06:51:28.600Z,13.20
2023-05-13T06:53:57.953Z,13.00
2023-05-13T06:56:28.352Z,13.00
2023-05-13T06:58:57.529Z,13.10
2023-05-13T07:01:33.806Z,13.30
2023-05-13T07:04:02.026Z,13.30
2023-05-13T07:06:34.141Z,13.30
2023-05-13T07:09:08.121Z,13.50
2023-05-13T07:11:38.183Z,13.50
2023-05-13T07:14:07.262Z,13.50
2023-05-13T07:16:36.382Z,13.40
2023-05-13T07:19:04.449Z,13.50
2023-05-13T07:21:33.729Z,13.50
2023-05-13T07:24:05.430Z,13.50
2023-05-13T07:26:33.747Z,13.80
2023-05-13T07:29:04.152Z,13.90
2023-05-13T07:31:33.160Z,13.90
2023-05-13T07:34:01.141Z,13.70
2023-05-13T07:36:29.108Z,13.60
2023-05-13T07:38:57.198Z,13.60
2023-05-13T07:41:25.229Z,13.50
2023-05-13T07:43:53.452Z,13.50
2023-05-13T07:46:22.893Z,13.80
2023-05-13T07:48:51.025Z,13.70
2023-05-13T07:51:19.003Z,13.60
2023-05-13T07:53:47.309Z,13.60
2023-05-13T07:56:15.372Z,13.50
2023-05-13T07:58:43.724Z,13.60
2023-05-13T08:01:11.778Z,13.60
2023-05-13T08:03:42.567Z,13.80
2023-05-13T08:06:11.803Z,13.90
2023-05-13T08:08:39.801Z,13.90
2023-05-13T08:11:08.734Z,14.00
2023-05-13T08:13:36.738Z,13.80
2023-05-13T08:16:06.930Z,13.90
2023-05-13T08:18:35.029Z,13.80
2023-05-13T08:21:04.897Z,13.70
2023-05-13T08:23:43.940Z,13.90
2023-05-13T08:26:33.764Z,13.90
2023-05-13T08:29:01.976Z,13.90
2023-05-13T08:31:32.032Z,14.00
2023-05-13T08:34:00.218Z,13.90
2023-05-13T08:36:29.692Z,14.00
2023-05-13T08:38:57.758Z,14.30
2023-05-13T08:41:26.076Z,14.60
2023-05-13T08:43:56.976Z,14.80
2023-05-13T08:46:26.181Z,14.70
2023-05-13T08:48:55.792Z,14.70
2023-05-13T08:51:23.925Z,14.50
2023-05-13T08:53:54.585Z,14.50
2023-05-13T08:56:25.563Z,14.20
2023-05-13T08:58:53.609Z,14.50
2023-05-13T09:01:22.477Z,14.10
2023-05-13T09:04:09.294Z,14.10
2023-05-13T09:06:37.311Z,14.00
2023-05-13T09:09:09.748Z,14.00
2023-05-13T09:11:40.940Z,13.80
2023-05-13T09:14:12.073Z,13.70
2023-05-13T09:16:40.628Z,13.70
2023-05-13T09:19:12.150Z,13.60
2023-05-13T09:21:40.326Z,13.50
2023-05-13T09:24:12.578Z,13.50
2023-05-13T09:26:48.397Z,13.50
2023-05-13T09:29:24.699Z,13.40
2023-05-13T09:31:53.650Z,13.50
2023-05-13T09:34:29.273Z,13.50
2023-05-13T09:37:00.287Z,13.70
2023-05-13T09:39:34.106Z,13.70
2023-05-13T09:42:05.456Z,13.70
2023-05-13T09:44:35.193Z,14.00
2023-05-13T09:47:03.734Z,14.10
2023-05-13T09:49:33.110Z,14.10
2023-05-13T09:52:01.385Z,14.10
2023-05-13T09:54:37.356Z,14.10
2023-05-13T09:57:06.894Z,14.10
2023-05-13T09:59:35.108Z,14.30
2023-05-13T10:02:16.440Z,14.50
2023-05-13T10:04:50.431Z,14.40
2023-05-13T10:07:26.825Z,14.40
2023-05-13T10:09:59.880Z,14.30
2023-05-13T10:12:47.973Z,14.20
2023-05-13T10:15:16.650Z,14.50
2023-05-13T10:17:45.347Z,14.50
2023-05-13T10:20:13.719Z,14.50
2023-05-13T10:22:51.475Z,14.80
2023-05-13T10:25:21.196Z,14.70
2023-05-13T10:27:49.485Z,14.80
2023-05-13T10:30:20.078Z,14.80
2023-05-13T10:32:48.241Z,14.90
2023-05-13T10:35:21.105Z,15.30
2023-05-13T10:38:08.899Z,15.20
2023-05-13T10:41:05.612Z,14.90
2023-05-13T10:43:58.430Z,14.60
2023-05-13T10:46:39.369Z,14.90
2023-05-13T10:49:17.023Z,15.10
2023-05-13T10:51:47.196Z,15.10
2023-05-13T10:54:20.390Z,14.90
2023-05-13T10:56:58.258Z,15.00
2023-05-13T10:59:30.405Z,15.00
2023-05-13T11:02:22.888Z,15.10
2023-05-13T11:05:01.197Z,14.90
2023-05-13T11:07:30.733Z,15.10
2023-05-13T11:10:00.964Z,15.10
2023-05-13T11:12:30.407Z,15.20
2023-05-13T11:15:23.080Z,15.10
2023-05-13T11:17:54.750Z,15.40
2023-05-13T11:20:25.941Z,15.40
2023-05-13T11:22:54.466Z,15.70
2023-05-13T11:25:28.356Z,15.20
2023-05-13T11:27:58.957Z,14.90
2023-05-13T11:30:28.110Z,15.00
2023-05-13T11:33:02.909Z,15.10
2023-05-13T11:35:34.271Z,15.20
2023-05-13T11:38:03.893Z,15.10
2023-05-13T11:40:34.277Z,14.90
2023-05-13T11:43:05.013Z,15.20
2023-05-13T11:45:34.452Z,14.90
2023-05-13T11:48:19.373Z,15.30
2023-05-13T11:50:47.581Z,15.40
2023-05-13T11:53:22.160Z,15.60
2023-05-13T11:55:51.522Z,15.40
2023-05-13T11:58:22.610Z,15.50
2023-05-13T12:00:51.939Z,15.90
2023-05-13T12:03:20.061Z,15.70
2023-05-13T12:05:49.255Z,15.40
2023-05-13T12:08:23.964Z,15.50
2023-05-13T12:10:51.982Z,15.20
2023-05-13T12:13:21.778Z,15.20
2023-05-13T12:15:50.724Z,15.20
2023-05-13T12:18:18.731Z,15.20
2023-05-13T12:20:47.110Z,14.80
2023-05-13T12:23:15.520Z,14.80
2023-05-13T12:25:46.641Z,14.60
2023-05-13T12:28:17.671Z,14.20
2023-05-13T12:30:53.727Z,14.20
2023-05-13T12:33:23.099Z,14.30
2023-05-13T12:35:53.609Z,14.50
2023-05-13T12:38:23.921Z,14.70
2023-05-13T12:40:54.700Z,14.70
2023-05-13T12:43:22.814Z,14.70
2023-05-13T12:45:55.680Z,14.40
2023-05-13T12:48:27.248Z,14.40
2023-05-13T12:50:56.413Z,14.50
2023-05-13T12:53:24.609Z,14.70
2023-05-13T12:55:52.703Z,14.90
2023-05-13T12:58:20.807Z,14.90
2023-05-13T13:00:48.878Z,14.80
2023-05-13T13:03:18.816Z,14.50
2023-05-13T13:05:58.326Z,14.50
2023-05-13T13:08:26.867Z,14.70
2023-05-13T13:10:58.094Z,14.60
2023-05-13T13:13:28.213Z,14.60
2023-05-13T13:15:58.968Z,14.40
2023-05-13T13:18:28.462Z,14.70
2023-05-13T13:20:56.524Z,14.80
2023-05-13T13:23:25.404Z,14.90
2023-05-13T13:25:55.471Z,14.80
2023-05-13T13:28:24.436Z,14.90
2023-05-13T13:30:52.556Z,15.30
2023-05-13T13:33:21.206Z,15.10
2023-05-13T13:35:52.896Z,15.00
2023-05-13T13:38:20.998Z,15.10
2023-05-13T13:40:48.954Z,15.20
2023-05-13T13:43:17.016Z,15.40
2023-05-13T13:45:45.012Z,15.30
2023-05-13T13:48:13.436Z,15.70
2023-05-13T13:50:41.475Z,15.50
2023-05-13T13:53:16.835Z,15.30
2023-05-13T13:55:47.505Z,15.40
2023-05-13T13:58:15.835Z,15.60
2023-05-13T14:00:44.757Z,15.70
2023-05-13T14:03:13.629Z,15.60
2023-05-13T14:05:42.993Z,15.60
2023-05-13T14:08:19.284Z,15.90
2023-05-13T14:10:53.772Z,15.50
2023-05-13T14:13:21.973Z,15.50
2023-05-13T14:15:50.033Z,15.50
2023-05-13T14:18:18.073Z,15.80
2023-05-13T14:20:47.525Z,15.70
2023-05-13T14:23:15.491Z,15.60
2023-05-13T14:25:45.500Z,15.50
2023-05-13T14:28:20.444Z,14.90
2023-05-13T14:30:49.454Z,14.90
2023-05-13T14:33:17.424Z,14.80
2023-05-13T14:35:45.433Z,14.70
2023-05-13T14:38:14.458Z,14.30
2023-05-13T14:40:49.478Z,14.20
2023-05-13T14:43:18.617Z,14.40
2023-05-13T14:45:46.667Z,14.30
2023-05-13T14:48:16.349Z,14.40
2023-05-13T14:50:45.034Z,14.30
2023-05-13T14:53:13.170Z,13.90
2023-05-13T14:55:41.419Z,13.90
2023-05-13T14:58:11.296Z,14.00
2023-05-13T15:00:39.674Z,14.20
2023-05-13T15:03:08.134Z,14.10
2023-05-13T15:05:36.312Z,14.30
2023-05-13T15:08:04.356Z,14.10
2023-05-13T15:10:32.449Z,14.40
2023-05-13T15:13:00.484Z,14.30
2023-05-13T15:15:29.971Z,14.30
2023-05-13T15:17:58.810Z,14.50
2023-05-13T15:20:28.285Z,14.50
2023-05-13T15:22:57.796Z,14.70
2023-05-13T15:25:26.003Z,14.70
2023-05-13T15:27:54.031Z,14.80
2023-05-13T15:30:22.455Z,14.60
2023-05-13T15:32:54.087Z,14.80
2023-05-13T15:35:30.460Z,15.00
2023-05-13T15:38:00.740Z,14.70
2023-05-13T15:40:38.379Z,15.10
2023-05-13T15:43:06.577Z,15.20
2023-05-13T15:45:53.554Z,16.00
2023-05-13T15:48:30.585Z,15.70
2023-05-13T15:50:58.731Z,15.20
2023-05-13T15:53:26.858Z,15.00
2023-05-13T15:55:57.311Z,14.90
2023-05-13T15:58:27.272Z,15.00
2023-05-13T16:00:58.434Z,14.60
2023-05-13T16:03:27.613Z,14.60
2023-05-13T16:05:57.325Z,14.50
2023-05-13T16:08:29.177Z,14.40
2023-05-13T16:10:58.416Z,14.30
2023-05-13T16:13:26.536Z,14.50
2023-05-13T16:15:54.875Z,14.30
2023-05-13T16:18:24.042Z,14.30
2023-05-13T16:20:53.050Z,14.40
2023-05-13T16:23:27.643Z,14.40
2023-05-13T16:26:01.865Z,14.40
2023-05-13T16:28:30.009Z,14.50
2023-05-13T16:30:58.764Z,14.50
2023-05-13T16:33:27.008Z,14.40
2023-05-13T16:35:57.781Z,14.30
2023-05-13T16:38:27.803Z,14.30
2023-05-13T16:41:19.506Z,14.30
2023-05-13T16:43:54.465Z,14.20
2023-05-13T16:46:25.416Z,14.30
2023-05-13T16:49:00.169Z,14.40
2023-05-13T16:51:33.167Z,14.50
2023-05-13T16:54:07.922Z,14.50
2023-05-13T16:56:36.609Z,14.40
2023-05-13T16:59:05.701Z,14.40
2023-05-13T17:01:41.846Z,14.40
2023-05-13T17:04:10.039Z,14.30
2023-05-13T17:06:41.004Z,14.30
2023-05-13T17:09:11.951Z,14.30
2023-05-13T17:11:40.650Z,14.30
2023-05-13T17:14:12.865Z,14.30
2023-05-13T17:16:42.024Z,14.30
2023-05-13T17:19:10.238Z,14.40
2023-05-13T17:21:48.115Z,14.40
2023-05-13T17:24:30.514Z,14.20
2023-05-13T17:26:58.619Z,14.10
2023-05-13T17:29:30.868Z,14.10
2023-05-13T17:31:58.887Z,14.20
2023-05-13T17:34:41.205Z,14.20
2023-05-13T17:37:09.238Z,14.10
2023-05-13T17:39:38.702Z,14.00
2023-05-13T17:42:12.510Z,13.90
2023-05-13T17:44:40.618Z,13.80
2023-05-13T17:47:08.775Z,13.70
2023-05-13T17:49:36.869Z,13.60
2023-05-13T17:52:09.106Z,13.70
2023-05-13T17:54:40.538Z,13.60
2023-05-13T17:57:10.975Z,13.50
2023-05-13T17:59:39.075Z,13.50
2023-05-13T18:02:07.861Z,13.50
2023-05-13T18:04:35.963Z,13.40
2023-05-13T18:07:05.054Z,13.40
2023-05-13T18:09:33.044Z,13.30
2023-05-13T18:12:21.278Z,13.30
2023-05-13T18:14:51.513Z,13.30
2023-05-13T18:17:21.956Z,13.30
2023-05-13T18:19:56.052Z,13.30
2023-05-13T18:22:34.850Z,13.20
2023-05-13T18:25:04.375Z,13.10
2023-05-13T18:27:33.801Z,13.30
2023-05-13T18:30:05.083Z,13.30
2023-05-13T18:32:33.164Z,13.20
2023-05-13T18:35:09.329Z,13.20
2023-05-13T18:37:41.508Z,13.10
2023-05-13T18:40:21.318Z,13.10
2023-05-13T18:42:51.044Z,13.10
2023-05-13T18:45:19.380Z,13.10
2023-05-13T18:47:47.536Z,13.10
2023-05-13T18:50:16.132Z,13.00
2023-05-13T18:52:48.558Z,13.00
2023-05-13T18:55:16.733Z,13.00
2023-05-13T18:57:44.735Z,13.00
2023-05-13T19:00:16.160Z,12.90
2023-05-13T19:02:44.403Z,13.00
2023-05-13T19:05:12.591Z,13.00
2023-05-13T19:07:42.714Z,13.00
2023-05-13T19:10:11.195Z,13.00
2023-05-13T19:12:55.364Z,13.00
2023-05-13T19:15:25.251Z,12.90
2023-05-13T19:17:53.770Z,12.90
2023-05-13T19:20:27.055Z,12.90
2023-05-13T19:22:55.046Z,13.00
2023-05-13T19:25:23.030Z,13.00
2023-05-13T19:27:51.823Z,12.90
2023-05-13T19:30:20.091Z,12.90
2023-05-13T19:32:50.212Z,12.80
2023-05-13T19:35:19.012Z,12.80
2023-05-13T19:37:49.052Z,12.80
2023-05-13T19:40:17.146Z,12.80
2023-05-13T19:42:45.579Z,12.80
2023-05-13T19:45:13.531Z,12.70
2023-05-13T19:47:41.757Z,12.70
2023-05-13T19:50:11.632Z,12.60
2023-05-13T19:52:40.534Z,12.60
2023-05-13T19:55:17.658Z,12.60
2023-05-13T19:57:45.833Z,12.60
2023-05-13T20:00:15.137Z,12.60
2023-05-13T20:02:43.220Z,12.60
2023-05-13T20:05:12.693Z,12.60
2023-05-13T20:07:51.734Z,12.60
2023-05-13T20:10:19.704Z,12.50
2023-05-13T20:12:57.870Z,12.50
2023-05-13T20:15:27.077Z,12.50
2023-05-13T20:17:57.327Z,12.40
2023-05-13T20:20:26.797Z,12.20
2023-05-13T20:22:55.104Z,12.20
2023-05-13T20:25:23.129Z,12.10
2023-05-13T20:27:56.212Z,12.10
2023-05-13T20:30:24.644Z,12.20
2023-05-13T20:32:52.898Z,12.10
2023-05-13T20:35:37.363Z,12.10
2023-05-13T20:38:06.011Z,12.10
2023-05-13T20:40:36.334Z,12.10
2023-05-13T20:43:06.896Z,12.00
2023-05-13T20:45:42.711Z,12.00
2023-05-13T20:48:10.942Z,11.90
2023-05-13T20:50:40.434Z,11.70
2023-05-13T20:53:08.490Z,11.50
2023-05-13T20:55:38.603Z,11.60
2023-05-13T20:58:06.622Z,11.60
2023-05-13T21:00:34.593Z,11.60
2023-05-13T21:03:03.303Z,11.60
2023-05-13T21:05:32.057Z,11.60
2023-05-13T21:08:02.466Z,11.70
2023-05-13T21:10:30.431Z,11.70
2023-05-13T21:12:58.520Z,11.80
2023-05-13T21:15:26.481Z,11.70
2023-05-13T21:17:55.605Z,11.70
2023-05-13T21:20:25.948Z,11.70
2023-05-13T21:23:02.506Z,11.70
2023-05-13T21:25:30.496Z,11.70
2023-05-13T21:28:02.548Z,11.80
2023-05-13T21:30:33.630Z,11.70
2023-05-13T21:33:01.894Z,11.80
2023-05-13T21:35:30.349Z,11.80
2023-05-13T21:38:11.958Z,11.90
2023-05-13T21:40:48.428Z,12.00
2023-05-13T21:43:16.660Z,12.00
2023-05-13T21:45:52.776Z,12.00
2023-05-13T21:48:22.067Z,12.10
2023-05-13T21:50:51.198Z,12.10
2023-05-13T21:53:22.913Z,12.10
2023-05-13T21:55:55.688Z,12.10
2023-05-13T21:58:24.704Z,12.10
2023-05-13T22:00:53.867Z,12.10
2023-05-13T22:03:21.945Z,12.10
2023-05-13T22:05:57.745Z,12.00
2023-05-13T22:08:29.322Z,11.90
2023-05-13T22:11:01.252Z,11.90
2023-05-13T22:13:29.483Z,11.90
2023-05-13T22:15:57.528Z,11.80
2023-05-13T22:18:26.120Z,11.80
2023-05-13T22:20:56.307Z,11.80
2023-05-13T22:23:24.280Z,11.70
2023-05-13T22:26:02.365Z,11.60
2023-05-13T22:28:30.338Z,11.70
2023-05-13T22:30:58.392Z,11.60
2023-05-13T22:33:45.349Z,11.50
2023-05-13T22:36:13.427Z,11.50
2023-05-13T22:38:42.411Z,11.40
2023-05-13T22:41:13.106Z,11.30
2023-05-13T22:43:41.925Z,11.30
2023-05-13T22:46:10.049Z,11.20
2023-05-13T22:48:38.155Z,11.10
2023-05-13T22:51:06.161Z,11.00
2023-05-13T22:53:34.208Z,10.90
2023-05-13T22:56:02.305Z,10.80
2023-05-13T22:58:34.175Z,10.60
2023-05-13T23:01:02.182Z,10.50
2023-05-13T23:03:36.379Z,10.40
2023-05-13T23:06:04.599Z,10.40
2023-05-13T23:08:32.617Z,10.40
2023-05-13T23:11:07.680Z,10.20
2023-05-13T23:13:38.109Z,10.30
2023-05-13T23:16:06.609Z,10.20
2023-05-13T23:18:36.472Z,10.20
2023-05-13T23:21:04.845Z,10.20
2023-05-13T23:23:33.374Z,10.10
2023-05-13T23:26:01.344Z,10.10
2023-05-13T23:28:29.457Z,10.00
2023-05-13T23:30:59.278Z,10.00
2023-05-13T23:33:29.402Z,10.00
2023-05-13T23:35:57.569Z,9.90
2023-05-13T23:38:31.553Z,9.80
2023-05-13T23:40:59.505Z,9.80
2023-05-13T23:43:27.469Z,9.80
2023-05-13T23:46:00.817Z,9.70
2023-05-13T23:48:31.857Z,9.60
2023-05-13T23:51:22.939Z,9.70
2023-05-13T23:53:54.283Z,9.60
2023-05-13T23:56:28.465Z,9.70
2023-05-13T23:58:56.456Z,9.70
